Time;durP1;ratioP1;P1;durP2;ratioP2;P2;SDS_P1;SDS_P2;PMS_P1;PMS_P2;Temp;Humidity;BMP_temperature;BMP_pressure;BME280_temperature;BME280_humidity;BME280_pressure;Samples;Min_cycle;Max_cycle;Signal;HPM_P1;HPM_P2
2022/01/15 00:01:38;;;;;;;28.23;19.97;;;-1.30;99.90;;;;;;5026020;28;20575;-71
2022/01/15 00:04:04;;;;;;;29.40;19.17;;;-1.40;99.90;;;;;;5049806;28;20191;-71
2022/01/15 00:06:30;;;;;;;30.17;19.17;;;-1.40;99.90;;;;;;5050819;28;20687;-71
2022/01/15 00:08:55;;;;;;;28.70;19.50;;;-1.50;99.90;;;;;;5050165;28;20164;-71
2022/01/15 00:11:21;;;;;;;32.77;21.20;;;-1.50;99.90;;;;;;5012610;28;20245;-71
2022/01/15 00:13:54;;;;;;;29.13;19.40;;;-1.50;99.90;;;;;;5012630;28;20224;-71
2022/01/15 00:16:32;;;;;;;30.13;20.30;;;-1.50;99.90;;;;;;5012420;28;20245;-71
2022/01/15 00:21:27;;;;;;;31.73;21.90;;;-1.60;99.90;;;;;;5018432;28;20184;-71
2022/01/15 00:23:52;;;;;;;30.97;20.00;;;-1.70;99.90;;;;;;5032040;28;20267;-71
2022/01/15 00:26:18;;;;;;;33.50;20.73;;;-1.70;99.90;;;;;;5027474;28;20196;-70
2022/01/15 00:28:44;;;;;;;29.30;20.80;;;-1.70;99.90;;;;;;5012337;28;20188;-70
2022/01/15 00:31:10;;;;;;;28.57;19.43;;;-1.70;99.90;;;;;;5012426;28;20173;-71
2022/01/15 00:33:35;;;;;;;34.87;20.87;;;-1.80;99.90;;;;;;5012291;28;20668;-73
2022/01/15 00:36:01;;;;;;;29.10;18.47;;;-1.80;99.90;;;;;;5027943;28;20601;-73
2022/01/15 00:38:27;;;;;;;32.47;21.57;;;-1.80;99.90;;;;;;5021810;28;20235;-73
2022/01/15 00:40:52;;;;;;;28.70;20.20;;;-1.80;99.90;;;;;;5020877;28;20231;-73
2022/01/15 00:43:18;;;;;;;33.77;21.47;;;-1.80;99.90;;;;;;5022673;28;20675;-74
2022/01/15 00:45:45;;;;;;;34.30;21.30;;;-1.80;99.90;;;;;;5020902;28;20467;-73
2022/01/15 00:48:10;;;;;;;33.73;21.23;;;-1.70;99.90;;;;;;5021106;28;20172;-73
2022/01/15 00:50:36;;;;;;;33.00;19.93;;;-1.70;99.90;;;;;;5023398;28;20173;-73
2022/01/15 00:53:01;;;;;;;31.40;20.40;;;-1.70;99.90;;;;;;5022116;28;20185;-73
2022/01/15 00:55:27;;;;;;;28.97;19.27;;;-1.70;99.90;;;;;;5021207;28;20667;-73
2022/01/15 00:57:53;;;;;;;31.37;20.53;;;-1.60;99.90;;;;;;5018083;28;20181;-73
2022/01/15 01:00:22;;;;;;;31.47;20.43;;;-1.60;99.90;;;;;;5014187;28;20216;-73
2022/01/15 01:02:48;;;;;;;33.20;20.80;;;-1.50;99.90;;;;;;5038809;28;20200;-73
2022/01/15 01:05:14;;;;;;;27.67;18.97;;;-1.50;99.90;;;;;;5023811;28;20197;-73
2022/01/15 01:07:40;;;;;;;31.30;19.63;;;-1.40;99.90;;;;;;5024457;28;20179;-70
2022/01/15 01:13:14;;;;;;;30.40;20.90;;;-1.20;99.90;;;;;;5012070;28;20189;-74
2022/01/15 01:24:18;;;;;;;30.67;20.13;;;-1.00;99.90;;;;;;4985106;28;20212;-73
2022/01/15 01:26:54;;;;;;;31.27;20.60;;;-0.90;99.90;;;;;;5024906;28;20223;-73
2022/01/15 01:32:14;;;;;;;33.77;19.57;;;-0.90;99.90;;;;;;5031570;28;20268;-73
2022/01/15 01:34:42;;;;;;;33.97;21.07;;;-0.90;99.90;;;;;;5015956;28;20185;-74
2022/01/15 01:37:17;;;;;;;31.07;20.20;;;-0.90;99.90;;;;;;5011832;28;20228;-74
2022/01/15 01:39:47;;;;;;;33.20;20.67;;;-0.90;99.90;;;;;;5014740;28;20241;-74
2022/01/15 01:42:32;;;;;;;30.73;20.90;;;-0.90;99.90;;;;;;5015407;28;20197;-74
2022/01/15 01:45:06;;;;;;;36.70;23.00;;;-0.90;99.90;;;;;;5034901;28;20169;-74
2022/01/15 01:47:40;;;;;;;33.70;20.23;;;-0.90;99.90;;;;;;5035157;28;20524;-74
2022/01/15 01:50:12;;;;;;;34.60;20.10;;;-0.80;99.90;;;;;;5043182;28;20554;-74
2022/01/15 01:52:39;;;;;;;30.63;20.17;;;-0.80;99.90;;;;;;5036711;28;20691;-74
2022/01/15 01:55:05;;;;;;;32.53;20.00;;;-0.80;99.90;;;;;;5034796;28;20255;-74
2022/01/15 01:57:32;;;;;;;32.40;21.37;;;-0.80;99.90;;;;;;5035250;28;20169;-74
2022/01/15 01:59:58;;;;;;;33.47;20.20;;;-0.80;99.90;;;;;;5031328;28;20192;-73
2022/01/15 02:02:24;;;;;;;32.53;20.73;;;-0.70;99.90;;;;;;5015173;28;20203;-74
2022/01/15 02:04:49;;;;;;;28.10;17.77;;;-0.70;99.90;;;;;;5014853;28;20207;-74
2022/01/15 02:07:15;;;;;;;34.83;21.07;;;-0.60;99.90;;;;;;5015197;28;20227;-74
2022/01/15 02:09:41;;;;;;;29.93;19.47;;;-0.60;99.90;;;;;;5013803;28;20189;-74
2022/01/15 02:12:07;;;;;;;28.77;18.97;;;-0.50;99.90;;;;;;5014889;28;20166;-74
2022/01/15 02:14:33;;;;;;;35.30;21.10;;;-0.40;99.90;;;;;;5014607;28;20201;-74
2022/01/15 02:16:59;;;;;;;34.93;20.40;;;-0.40;99.90;;;;;;5024584;28;20275;-73
2022/01/15 02:19:33;;;;;;;34.03;21.03;;;-0.30;99.90;;;;;;5014715;28;20178;-73
2022/01/15 02:24:43;;;;;;;37.43;20.73;;;-0.40;99.90;;;;;;5023251;28;20192;-73
2022/01/15 02:27:08;;;;;;;29.87;18.50;;;-0.30;99.90;;;;;;5032967;28;20176;-74
2022/01/15 02:29:34;;;;;;;33.57;21.20;;;-0.30;99.90;;;;;;5033189;28;20176;-74
2022/01/15 02:32:00;;;;;;;31.23;19.70;;;-0.30;99.90;;;;;;5032124;28;20314;-73
2022/01/15 02:34:25;;;;;;;35.63;21.77;;;-0.30;99.90;;;;;;5014976;28;20236;-73
2022/01/15 02:36:51;;;;;;;35.30;22.47;;;-0.30;99.90;;;;;;5014485;28;20177;-73
2022/01/15 02:39:16;;;;;;;33.93;22.17;;;-0.30;99.90;;;;;;5014305;28;20256;-73
2022/01/15 02:41:42;;;;;;;33.17;20.57;;;-0.30;99.90;;;;;;5014450;28;20185;-73
2022/01/15 02:44:17;;;;;;;34.63;21.57;;;-0.40;99.90;;;;;;5014412;28;20233;-73
2022/01/15 02:49:16;;;;;;;35.40;21.47;;;-0.40;99.90;;;;;;5015610;28;20645;-73
2022/01/15 02:51:41;;;;;;;41.30;22.50;;;-0.40;99.90;;;;;;5032655;28;20205;-73
2022/01/15 02:54:08;;;;;;;39.60;23.10;;;-0.40;99.90;;;;;;5012753;28;20638;-73
2022/01/15 02:56:35;;;;;;;38.83;22.23;;;-0.40;99.90;;;;;;5013915;28;20184;-73
2022/01/15 02:59:06;;;;;;;39.13;22.77;;;-0.40;99.90;;;;;;5012704;28;20193;-73
2022/01/15 03:01:33;;;;;;;39.43;23.40;;;-0.30;99.90;;;;;;5012616;28;20188;-73
2022/01/15 03:03:59;;;;;;;36.50;23.50;;;-0.30;99.90;;;;;;5013999;28;20276;-73
2022/01/15 03:06:24;;;;;;;39.20;22.70;;;-0.30;99.90;;;;;;5013474;28;20641;-73
2022/01/15 03:08:51;;;;;;;36.97;22.20;;;-0.30;99.90;;;;;;5013792;28;20260;-73
2022/01/15 03:11:18;;;;;;;39.57;21.63;;;-0.30;99.90;;;;;;5013845;28;20177;-73
2022/01/15 03:13:45;;;;;;;38.23;21.73;;;-0.30;99.90;;;;;;5013647;28;20193;-73
2022/01/15 03:16:19;;;;;;;38.17;22.87;;;-0.30;99.90;;;;;;5016899;28;20189;-73
2022/01/15 03:18:46;;;;;;;31.37;21.13;;;-0.10;99.90;;;;;;5013558;28;20181;-73
2022/01/15 03:21:11;;;;;;;45.10;23.97;;;-0.10;99.90;;;;;;5013666;28;20256;-73
2022/01/15 03:23:38;;;;;;;38.17;23.40;;;-0.10;99.90;;;;;;5012168;28;20288;-73
2022/01/15 03:26:05;;;;;;;38.00;23.83;;;-0.10;99.90;;;;;;5011993;28;20300;-73
2022/01/15 03:28:31;;;;;;;37.17;22.33;;;-0.10;99.90;;;;;;5013503;28;20177;-73
2022/01/15 03:30:57;;;;;;;34.30;21.77;;;-0.20;99.90;;;;;;5013876;28;20644;-73
2022/01/15 03:33:22;;;;;;;38.90;23.33;;;0.00;99.90;;;;;;5013057;28;20204;-72
2022/01/15 03:35:48;;;;;;;29.83;20.17;;;-0.10;99.90;;;;;;5011756;28;20185;-73
2022/01/15 03:38:14;;;;;;;35.73;21.93;;;0.00;99.90;;;;;;5013175;28;20173;-73
2022/01/15 03:40:40;;;;;;;33.47;22.17;;;0.10;99.90;;;;;;5013575;28;20267;-72
2022/01/15 03:43:06;;;;;;;40.67;23.70;;;0.20;99.90;;;;;;5013427;28;20204;-73
2022/01/15 03:45:32;;;;;;;36.43;22.90;;;0.20;99.90;;;;;;5012731;28;20567;-72
2022/01/15 03:47:58;;;;;;;32.23;21.03;;;0.10;99.90;;;;;;5013118;28;20166;-73
2022/01/15 03:50:24;;;;;;;34.77;21.17;;;0.20;99.90;;;;;;5033349;28;20647;-73
2022/01/15 03:52:50;;;;;;;34.97;22.10;;;0.10;99.90;;;;;;5014731;28;20212;-73
2022/01/15 03:55:17;;;;;;;31.30;20.23;;;0.20;99.90;;;;;;5012754;28;20173;-73
2022/01/15 03:57:42;;;;;;;31.07;20.27;;;0.20;99.90;;;;;;5012935;28;20180;-73
2022/01/15 04:00:11;;;;;;;32.13;21.60;;;0.30;99.90;;;;;;5015465;28;20193;-73
2022/01/15 04:02:37;;;;;;;29.40;20.30;;;0.40;99.90;;;;;;5038463;28;20404;-74
2022/01/15 04:05:03;;;;;;;34.03;21.73;;;0.50;99.90;;;;;;5050117;28;20651;-73
2022/01/15 04:07:29;;;;;;;29.67;19.53;;;0.50;99.90;;;;;;5052539;28;20164;-73
2022/01/15 04:09:54;;;;;;;31.53;21.63;;;0.50;99.90;;;;;;5037612;28;20532;-74
2022/01/15 04:12:20;;;;;;;29.17;19.57;;;0.50;99.90;;;;;;5032584;28;20749;-72
2022/01/15 04:14:45;;;;;;;33.90;20.57;;;0.50;99.90;;;;;;5031531;28;20172;-74
2022/01/15 04:17:11;;;;;;;32.83;20.13;;;0.60;99.90;;;;;;5022544;28;20203;-71
2022/01/15 04:19:39;;;;;;;29.33;19.33;;;0.60;99.90;;;;;;5012569;28;20180;-71
2022/01/15 04:22:05;;;;;;;30.80;20.07;;;0.50;99.90;;;;;;5012643;28;20645;-70
2022/01/15 04:24:30;;;;;;;36.93;20.83;;;0.50;99.90;;;;;;5018583;28;20268;-71
2022/01/15 04:26:56;;;;;;;34.33;21.30;;;0.50;99.90;;;;;;5029150;28;20209;-70
2022/01/15 04:29:22;;;;;;;36.13;20.53;;;0.50;99.90;;;;;;5011648;28;20224;-70
2022/01/15 04:31:48;;;;;;;33.70;21.30;;;0.50;99.90;;;;;;5011867;28;20189;-71
2022/01/15 04:34:26;;;;;;;32.03;21.17;;;0.50;99.90;;;;;;5012132;28;20623;-70
2022/01/15 04:36:54;;;;;;;30.93;19.63;;;0.40;99.90;;;;;;5012307;28;20169;-70
2022/01/15 04:39:19;;;;;;;34.57;21.87;;;0.40;99.90;;;;;;5012347;28;20206;-70
2022/01/15 04:41:45;;;;;;;34.60;21.03;;;0.30;99.90;;;;;;5012190;28;20213;-70
2022/01/15 04:44:11;;;;;;;32.10;20.77;;;0.30;99.90;;;;;;5011893;28;20201;-70
2022/01/15 04:46:37;;;;;;;31.80;20.83;;;0.30;99.90;;;;;;5012014;28;20675;-70
2022/01/15 04:49:04;;;;;;;33.10;20.80;;;0.30;99.90;;;;;;5028543;28;20187;-70
2022/01/15 04:51:31;;;;;;;32.20;19.77;;;0.40;99.90;;;;;;5051551;28;20178;-70
2022/01/15 04:53:56;;;;;;;30.57;20.20;;;0.40;99.90;;;;;;5027395;28;20232;-71
2022/01/15 04:56:22;;;;;;;31.93;21.37;;;0.40;99.90;;;;;;5015561;28;20219;-71
2022/01/15 04:58:48;;;;;;;33.60;20.63;;;0.40;99.90;;;;;;5031721;28;20185;-71
2022/01/15 05:01:13;;;;;;;31.77;20.30;;;0.50;99.90;;;;;;5026271;28;20283;-70
2022/01/15 05:03:39;;;;;;;34.93;20.53;;;0.60;99.90;;;;;;5012114;28;20672;-70
2022/01/15 05:06:05;;;;;;;33.03;21.67;;;0.50;99.90;;;;;;5011545;28;20683;-70
2022/01/15 05:08:32;;;;;;;34.13;21.60;;;0.60;99.90;;;;;;5011932;28;20173;-70
2022/01/15 05:10:59;;;;;;;29.97;20.47;;;0.60;99.90;;;;;;5011702;28;20239;-70
2022/01/15 05:13:29;;;;;;;31.40;20.30;;;0.60;99.90;;;;;;5013740;28;20205;-70
2022/01/15 05:15:55;;;;;;;32.80;20.43;;;0.70;99.90;;;;;;5015951;28;20178;-70
2022/01/15 05:18:21;;;;;;;31.13;20.40;;;0.80;99.90;;;;;;5015993;28;20172;-70
2022/01/15 05:20:47;;;;;;;31.00;19.63;;;0.70;99.90;;;;;;5022454;28;20192;-70
2022/01/15 05:23:13;;;;;;;32.50;21.00;;;0.80;99.90;;;;;;5035366;28;20614;-70
2022/01/15 05:25:39;;;;;;;30.40;20.57;;;0.80;99.90;;;;;;5034672;28;20243;-70
2022/01/15 05:28:06;;;;;;;33.77;20.93;;;0.80;99.90;;;;;;5031918;28;20552;-70
2022/01/15 05:30:33;;;;;;;33.30;20.77;;;0.70;99.90;;;;;;5015713;28;20552;-70
2022/01/15 05:32:59;;;;;;;34.10;20.40;;;0.70;99.90;;;;;;5015634;28;20189;-70
2022/01/15 05:35:28;;;;;;;31.23;20.37;;;0.70;99.90;;;;;;5015194;28;20284;-70
2022/01/15 05:37:58;;;;;;;33.23;20.40;;;0.80;99.90;;;;;;5020203;28;20238;-70
2022/01/15 05:40:24;;;;;;;32.17;20.27;;;0.90;99.90;;;;;;5035255;28;20177;-70
2022/01/15 05:42:51;;;;;;;33.30;19.40;;;1.00;99.90;;;;;;5035227;28;20211;-70
2022/01/15 05:45:17;;;;;;;33.50;19.70;;;1.00;99.90;;;;;;5031231;28;20696;-70
2022/01/15 05:47:43;;;;;;;37.27;21.70;;;1.00;99.90;;;;;;5015810;28;20176;-70
2022/01/15 05:50:10;;;;;;;33.13;21.07;;;0.90;99.90;;;;;;5026697;28;20176;-70
2022/01/15 05:52:36;;;;;;;33.87;21.47;;;0.80;99.90;;;;;;5034960;28;20188;-70
2022/01/15 05:55:02;;;;;;;33.13;20.03;;;0.70;99.90;;;;;;5025198;28;20186;-70
2022/01/15 05:57:27;;;;;;;30.30;19.33;;;0.80;99.90;;;;;;5015250;28;20177;-70
2022/01/15 05:59:53;;;;;;;36.70;22.07;;;0.80;99.90;;;;;;5015005;28;20193;-70
2022/01/15 06:02:19;;;;;;;31.20;19.30;;;0.80;99.90;;;;;;5014860;28;20216;-70
2022/01/15 06:04:45;;;;;;;32.73;20.13;;;0.70;99.90;;;;;;5014601;28;20165;-70
2022/01/15 06:07:11;;;;;;;31.73;19.23;;;0.80;99.90;;;;;;5014972;28;20211;-70
2022/01/15 06:09:36;;;;;;;35.20;21.07;;;0.80;99.90;;;;;;5014943;28;20208;-70
2022/01/15 06:12:02;;;;;;;28.67;18.87;;;0.70;99.90;;;;;;5015154;28;20374;-70
2022/01/15 06:14:30;;;;;;;30.63;19.13;;;0.80;99.90;;;;;;5014467;28;20185;-71
2022/01/15 06:16:56;;;;;;;32.03;19.47;;;0.80;99.90;;;;;;5014775;28;20174;-70
2022/01/15 06:19:21;;;;;;;31.20;19.40;;;0.90;99.90;;;;;;5015120;28;20193;-70
2022/01/15 06:21:47;;;;;;;32.00;19.53;;;0.90;99.90;;;;;;5014833;28;20178;-70
2022/01/15 06:24:13;;;;;;;32.60;20.43;;;0.90;99.90;;;;;;5015827;28;20270;-70
2022/01/15 06:26:39;;;;;;;29.93;20.17;;;0.80;99.90;;;;;;5030738;28;20216;-70
2022/01/15 06:29:04;;;;;;;29.77;20.00;;;0.80;99.90;;;;;;5031122;28;20683;-70
2022/01/15 06:31:31;;;;;;;31.63;20.63;;;0.70;99.90;;;;;;5034273;28;20177;-70
2022/01/15 06:33:57;;;;;;;29.03;19.53;;;0.60;99.90;;;;;;5033500;28;20192;-70
2022/01/15 06:36:23;;;;;;;33.23;20.10;;;0.60;99.90;;;;;;5022984;28;20664;-70
2022/01/15 06:38:49;;;;;;;33.90;19.93;;;0.60;99.90;;;;;;5026890;28;20199;-70
2022/01/15 06:41:14;;;;;;;36.43;21.63;;;0.80;99.90;;;;;;5034519;28;20176;-70
2022/01/15 06:43:40;;;;;;;27.07;19.10;;;0.90;99.90;;;;;;5034027;28;20748;-71
2022/01/15 06:46:06;;;;;;;32.40;20.20;;;1.00;99.90;;;;;;5026596;28;20201;-70
2022/01/15 06:48:31;;;;;;;30.80;19.40;;;0.90;99.90;;;;;;5014126;28;20185;-70
2022/01/15 06:50:57;;;;;;;32.33;21.10;;;0.80;99.90;;;;;;5043538;28;20172;-70
2022/01/15 06:53:23;;;;;;;32.27;20.67;;;0.80;99.90;;;;;;5045493;28;20228;-70
2022/01/15 06:55:52;;;;;;;33.83;20.93;;;0.70;99.90;;;;;;5011912;28;20181;-70
2022/01/15 06:58:22;;;;;;;33.57;20.57;;;0.70;99.90;;;;;;5028967;28;20735;-70
2022/01/15 07:00:49;;;;;;;29.63;19.60;;;0.80;99.90;;;;;;5022814;28;20275;-70
2022/01/15 07:03:15;;;;;;;31.30;19.77;;;1.00;99.90;;;;;;5025877;28;20223;-70
2022/01/15 07:05:40;;;;;;;29.63;19.10;;;0.90;99.90;;;;;;5022795;28;20244;-70
2022/01/15 07:08:07;;;;;;;27.67;18.23;;;0.90;99.90;;;;;;5024593;28;20183;-70
2022/01/15 07:10:33;;;;;;;31.93;18.70;;;1.00;99.90;;;;;;5032331;28;20259;-72
2022/01/15 07:12:59;;;;;;;31.23;19.77;;;1.10;99.90;;;;;;5033491;28;20272;-72
2022/01/15 07:15:24;;;;;;;30.57;18.97;;;1.10;99.90;;;;;;5033051;28;20176;-71
2022/01/15 07:17:50;;;;;;;28.13;18.30;;;1.10;99.90;;;;;;5016237;28;20622;-71
2022/01/15 07:20:19;;;;;;;30.47;20.23;;;1.20;99.90;;;;;;5013696;28;20653;-70
2022/01/15 07:22:45;;;;;;;27.93;19.03;;;1.20;99.90;;;;;;5013523;28;20189;-71
2022/01/15 07:25:11;;;;;;;30.70;20.77;;;1.30;99.90;;;;;;5015792;28;20294;-72
2022/01/15 07:27:38;;;;;;;30.73;19.47;;;1.40;99.90;;;;;;5032002;28;20660;-71
2022/01/15 07:30:06;;;;;;;31.93;18.87;;;1.30;99.90;;;;;;5022751;28;20550;-71
2022/01/15 07:32:32;;;;;;;33.90;20.60;;;1.40;99.90;;;;;;5021866;28;20246;-71
2022/01/15 07:34:58;;;;;;;32.83;21.67;;;1.30;99.90;;;;;;5018974;28;20176;-72
2022/01/15 07:37:23;;;;;;;34.97;21.87;;;1.10;99.90;;;;;;5028454;28;20678;-72
2022/01/15 07:39:49;;;;;;;28.70;19.93;;;1.00;99.90;;;;;;5032996;28;20168;-72
2022/01/15 07:42:15;;;;;;;38.27;20.77;;;1.10;99.90;;;;;;5031405;28;20212;-72
2022/01/15 07:44:40;;;;;;;33.43;20.27;;;1.20;99.90;;;;;;5032578;28;20192;-72
2022/01/15 07:47:06;;;;;;;34.80;21.90;;;1.20;99.90;;;;;;5031101;28;20686;-73
2022/01/15 07:49:32;;;;;;;35.80;22.10;;;1.30;99.90;;;;;;5019352;28;20258;-72
2022/01/15 07:52:02;;;;;;;38.73;22.57;;;1.40;99.90;;;;;;5052004;28;20318;-72
2022/01/15 07:54:27;;;;;;;40.43;21.00;;;1.30;99.90;;;;;;5052196;28;20188;-72
2022/01/15 07:56:58;;;;;;;33.30;19.73;;;1.30;99.90;;;;;;5019640;28;20247;-72
2022/01/15 07:59:25;;;;;;;34.53;20.83;;;1.50;99.90;;;;;;5013542;28;20170;-72
2022/01/15 08:01:51;;;;;;;29.23;19.43;;;1.60;99.90;;;;;;5012787;28;20442;-72
2022/01/15 08:04:17;;;;;;;34.57;20.77;;;1.80;99.90;;;;;;5024621;28;20703;-72
2022/01/15 08:06:42;;;;;;;35.40;22.20;;;1.80;99.90;;;;;;5032521;28;20279;-73
2022/01/15 08:09:08;;;;;;;35.87;22.27;;;1.80;99.90;;;;;;5032697;28;20163;-72
2022/01/15 08:11:34;;;;;;;37.07;23.13;;;1.70;99.90;;;;;;5032719;28;20172;-72
2022/01/15 08:14:00;;;;;;;39.53;22.93;;;1.70;99.90;;;;;;5020606;28;20579;-71
2022/01/15 08:16:26;;;;;;;36.47;22.93;;;1.50;99.90;;;;;;5028735;28;20276;-73
2022/01/15 08:18:51;;;;;;;38.23;22.67;;;1.30;99.90;;;;;;5029017;28;20196;-72
2022/01/15 08:21:17;;;;;;;35.60;21.77;;;1.30;99.90;;;;;;5030950;28;20260;-72
2022/01/15 08:23:43;;;;;;;37.57;22.47;;;1.50;99.90;;;;;;5017001;28;20197;-73
2022/01/15 08:26:09;;;;;;;40.00;22.07;;;1.70;99.90;;;;;;5011751;28;20209;-72
2022/01/15 08:28:36;;;;;;;36.60;21.40;;;1.70;99.90;;;;;;5012337;28;20177;-71
2022/01/15 08:31:02;;;;;;;38.23;23.10;;;1.60;99.90;;;;;;5012384;28;20368;-72
2022/01/15 08:33:28;;;;;;;34.47;21.33;;;1.70;99.90;;;;;;5015863;28;20291;-72
2022/01/15 08:35:54;;;;;;;33.37;21.70;;;1.90;99.90;;;;;;5013348;28;20181;-72
2022/01/15 08:38:19;;;;;;;36.17;21.97;;;2.00;99.90;;;;;;5012236;28;20821;-72
2022/01/15 08:40:45;;;;;;;37.27;22.10;;;2.20;99.90;;;;;;5022752;28;20172;-72
2022/01/15 08:43:12;;;;;;;37.90;23.80;;;2.30;99.90;;;;;;5019516;28;20231;-73
2022/01/15 08:45:38;;;;;;;43.47;29.17;;;2.30;99.90;;;;;;5020866;28;20207;-73
2022/01/15 08:48:05;;;;;;;39.37;24.43;;;2.10;99.90;;;;;;5017227;28;20224;-76
2022/01/15 08:50:31;;;;;;;42.07;23.83;;;2.10;99.90;;;;;;5023092;28;20169;-73
2022/01/15 08:52:57;;;;;;;40.40;23.67;;;2.10;99.90;;;;;;5031767;28;20209;-73
2022/01/15 08:55:28;;;;;;;38.53;22.67;;;2.10;99.90;;;;;;5031510;28;20207;-75
2022/01/15 08:57:57;;;;;;;38.73;23.00;;;2.00;99.90;;;;;;5030813;28;20199;-75
2022/01/15 09:00:23;;;;;;;36.10;20.60;;;2.00;99.90;;;;;;5015286;28;20228;-75
2022/01/15 09:02:49;;;;;;;36.97;21.87;;;2.10;99.90;;;;;;5012062;28;20570;-75
2022/01/15 09:05:16;;;;;;;34.17;21.23;;;2.20;99.90;;;;;;5011674;28;20228;-75
2022/01/15 09:07:42;;;;;;;33.70;20.97;;;2.30;99.90;;;;;;5011965;28;20182;-75
2022/01/15 09:10:08;;;;;;;33.77;21.03;;;2.40;99.90;;;;;;5010587;28;20176;-75
2022/01/15 09:12:34;;;;;;;35.10;21.27;;;2.50;99.90;;;;;;5011953;28;20258;-75
2022/01/15 09:15:00;;;;;;;34.37;20.53;;;2.60;99.90;;;;;;5021698;28;20295;-73
2022/01/15 09:17:26;;;;;;;34.10;20.50;;;2.70;99.90;;;;;;5026286;28;20184;-74
2022/01/15 09:19:53;;;;;;;30.33;20.47;;;2.80;99.90;;;;;;5022268;28;20176;-74
2022/01/15 09:22:19;;;;;;;33.03;21.73;;;2.90;99.90;;;;;;5024101;28;20256;-74
2022/01/15 09:24:46;;;;;;;31.00;20.30;;;3.00;99.90;;;;;;5031496;28;20270;-73
2022/01/15 09:30:12;;;;;;;31.70;19.87;;;3.10;99.90;;;;;;5014559;28;20319;-73
2022/01/15 09:32:43;;;;;;;32.30;21.10;;;3.40;99.90;;;;;;5011667;28;20196;-73
2022/01/15 09:35:09;;;;;;;28.70;20.23;;;3.40;99.90;;;;;;5015771;28;20288;-73
2022/01/15 09:37:35;;;;;;;27.70;19.27;;;3.70;99.90;;;;;;5026051;28;20179;-73
2022/01/15 09:40:02;;;;;;;28.43;19.93;;;3.70;99.90;;;;;;5031502;28;20541;-74
2022/01/15 09:42:28;;;;;;;27.47;18.97;;;3.90;99.90;;;;;;5031470;28;20191;-73
2022/01/15 09:44:54;;;;;;;26.77;18.67;;;3.70;99.90;;;;;;5015307;28;20185;-73
2022/01/15 09:47:22;;;;;;;27.67;18.00;;;3.70;99.90;;;;;;5011639;28;20698;-73
2022/01/15 09:49:49;;;;;;;31.20;19.67;;;3.90;99.90;;;;;;5021855;28;20215;-73
2022/01/15 09:52:16;;;;;;;27.93;18.40;;;3.90;99.90;;;;;;5025841;28;20744;-73
2022/01/15 09:54:42;;;;;;;30.97;20.40;;;4.10;99.90;;;;;;5011447;28;20546;-73
2022/01/15 09:57:08;;;;;;;32.17;21.57;;;4.00;99.90;;;;;;5026538;28;20187;-73
2022/01/15 09:59:34;;;;;;;32.80;21.83;;;3.80;99.90;;;;;;5025455;28;20185;-73
2022/01/15 10:02:02;;;;;;;31.93;20.83;;;4.00;99.90;;;;;;5015135;28;20187;-73
2022/01/15 10:04:32;;;;;;;30.13;20.73;;;3.80;99.90;;;;;;5019090;28;20266;-73
2022/01/15 10:07:19;;;;;;;26.37;18.60;;;4.00;99.90;;;;;;5042455;28;20226;-73
2022/01/15 10:09:46;;;;;;;29.92;20.75;;;4.10;99.90;;;;;;5031149;28;20181;-73
2022/01/15 10:12:27;;;;;;;33.17;20.37;;;4.20;99.90;;;;;;5030430;28;20743;-73
2022/01/15 10:14:57;;;;;;;31.53;21.33;;;4.10;99.90;;;;;;5034069;28;20175;-73
2022/01/15 10:17:34;;;;;;;33.77;20.33;;;3.80;99.90;;;;;;5030116;28;20185;-73
2022/01/15 10:20:12;;;;;;;31.17;20.47;;;3.80;99.90;;;;;;5014207;28;20176;-73
2022/01/15 10:22:43;;;;;;;30.13;20.20;;;3.90;99.90;;;;;;5014912;28;20224;-73
2022/01/15 10:25:18;;;;;;;29.53;19.20;;;4.10;99.90;;;;;;5014254;28;20232;-73
2022/01/15 10:27:47;;;;;;;32.70;21.60;;;4.40;99.90;;;;;;5029823;28;20181;-73
2022/01/15 10:30:15;;;;;;;30.60;20.30;;;4.20;99.90;;;;;;5014798;28;20169;-72
2022/01/15 10:32:59;;;;;;;31.30;19.95;;;4.30;99.90;;;;;;5014534;28;20559;-73
2022/01/15 10:35:30;;;;;;;31.97;20.43;;;4.50;99.90;;;;;;5033838;28;20606;-73
2022/01/15 10:38:01;;;;;;;30.67;20.57;;;4.50;99.90;;;;;;5034354;28;20231;-73
2022/01/15 10:40:42;;;;;;;31.65;19.30;;;4.50;99.90;;;;;;5034347;28;20173;-72
2022/01/15 10:43:09;;;;;;;28.88;19.80;;;4.70;99.90;;;;;;5033022;28;20259;-73
2022/01/15 10:45:56;;;;;;;28.45;19.00;;;4.90;99.90;;;;;;5033953;28;20283;-73
2022/01/15 10:48:29;;;;;;;30.15;20.00;;;5.20;99.90;;;;;;5034241;28;20167;-73
2022/01/15 10:51:06;;;;;;;31.20;20.30;;;5.10;99.90;;;;;;5028116;28;20829;-73
2022/01/15 10:53:36;;;;;;;29.17;19.50;;;4.60;99.90;;;;;;5016749;28;20204;-73
2022/01/15 10:56:03;;;;;;;29.83;20.10;;;4.90;99.90;;;;;;5021607;28;20187;-72
2022/01/15 10:58:28;;;;;;;29.15;20.70;;;5.10;99.90;;;;;;5020374;28;20176;-73
2022/01/15 11:00:54;;;;;;;29.85;20.48;;;5.10;99.90;;;;;;5024517;28;20270;-73
2022/01/15 11:03:22;;;;;;;28.92;19.67;;;5.10;99.90;;;;;;5030144;28;20208;-72
2022/01/15 11:05:52;;;;;;;28.05;19.40;;;5.10;99.90;;;;;;5018885;28;20568;-72
2022/01/15 11:08:20;;;;;;;28.90;20.17;;;5.30;99.90;;;;;;5014051;28;20212;-72
2022/01/15 11:10:53;;;;;;;28.77;19.55;;;5.20;99.90;;;;;;5013994;28;20181;-72
2022/01/15 11:13:22;;;;;;;27.05;19.17;;;5.00;99.90;;;;;;5013649;28;20200;-72
2022/01/15 11:15:51;;;;;;;26.88;18.10;;;5.20;99.90;;;;;;5013630;28;20176;-72
2022/01/15 11:18:23;;;;;;;28.23;18.45;;;5.30;99.90;;;;;;5014278;28;20509;-72
2022/01/15 11:20:53;;;;;;;25.25;17.88;;;5.20;99.90;;;;;;5021027;28;20309;-72
2022/01/15 11:23:23;;;;;;;24.20;19.00;;;5.50;99.90;;;;;;5030257;28;20619;-74
2022/01/15 11:25:51;;;;;;;28.02;19.20;;;5.70;99.90;;;;;;5033128;28;20294;-74
2022/01/15 11:28:25;;;;;;;24.35;17.50;;;5.50;99.90;;;;;;5028475;28;20180;-73
2022/01/15 11:30:58;;;;;;;24.52;17.67;;;5.40;99.90;;;;;;5012305;28;20188;-73
2022/01/15 11:33:28;;;;;;;25.58;17.05;;;5.60;99.90;;;;;;5013252;28;20209;-73
2022/01/15 11:35:54;;;;;;;23.35;16.70;;;5.80;99.90;;;;;;5019365;28;20190;-73
2022/01/15 11:38:39;;;;;;;25.48;18.60;;;5.60;99.90;;;;;;5029378;28;20187;-72
2022/01/15 11:41:05;;;;;;;26.35;18.13;;;5.30;99.90;;;;;;5025276;28;20205;-73
2022/01/15 11:43:31;;;;;;;28.27;18.90;;;4.90;99.90;;;;;;5028373;28;20210;-72
2022/01/15 11:46:01;;;;;;;26.90;18.10;;;5.20;99.90;;;;;;5032374;28;20334;-72
2022/01/15 11:48:29;;;;;;;25.58;18.25;;;5.20;99.90;;;;;;5032952;28;20252;-72
2022/01/15 11:51:13;;;;;;;28.60;18.67;;;5.20;99.90;;;;;;5022030;28;20516;-73
2022/01/15 11:53:46;;;;;;;24.05;17.33;;;5.10;99.90;;;;;;5013077;28;20296;-72
2022/01/15 11:56:22;;;;;;;28.67;18.40;;;5.40;99.90;;;;;;5012490;28;20177;-74
2022/01/15 11:58:48;;;;;;;27.98;18.92;;;5.70;99.90;;;;;;5012931;28;20573;-73
2022/01/15 12:01:35;;;;;;;24.83;18.13;;;5.50;99.90;;;;;;5012679;28;20339;-73
2022/01/15 12:04:23;;;;;;;25.02;16.77;;;5.70;99.90;;;;;;5012819;28;20201;-72
2022/01/15 12:07:07;;;;;;;26.30;17.88;;;5.30;99.90;;;;;;5012559;28;20200;-73
2022/01/15 12:09:43;;;;;;;27.85;16.92;;;5.00;99.90;;;;;;5012898;28;20170;-73
2022/01/15 12:12:25;;;;;;;25.35;17.83;;;5.40;99.90;;;;;;5019635;28;20180;-72
2022/01/15 12:14:57;;;;;;;26.67;18.10;;;5.50;99.90;;;;;;5029535;28;20239;-72
2022/01/15 12:17:33;;;;;;;25.77;17.15;;;5.40;99.90;;;;;;5033674;28;21235;-72
2022/01/15 12:20:26;;;;;;;24.92;17.40;;;5.60;99.90;;;;;;5020175;28;20663;-71
2022/01/15 12:23:15;;;;;;;24.58;17.92;;;5.40;99.90;;;;;;5016221;28;20578;-71
2022/01/15 12:25:42;;;;;;;27.15;17.92;;;5.10;99.90;;;;;;5028595;28;20216;-73
2022/01/15 12:28:13;;;;;;;24.58;16.92;;;4.90;99.90;;;;;;5012998;28;20172;-73
2022/01/15 12:30:41;;;;;;;27.63;19.10;;;5.20;99.90;;;;;;5012990;28;20181;-73
2022/01/15 12:33:13;;;;;;;28.73;18.23;;;5.00;99.90;;;;;;5025364;28;20197;-72
2022/01/15 12:35:41;;;;;;;25.77;17.25;;;4.80;99.90;;;;;;5028670;28;20221;-72
2022/01/15 12:38:27;;;;;;;28.10;17.88;;;4.60;99.90;;;;;;5024020;28;20247;-72
2022/01/15 12:41:06;;;;;;;23.05;16.63;;;4.60;99.90;;;;;;5024086;28;20185;-71
2022/01/15 12:43:36;;;;;;;25.73;17.10;;;4.90;99.90;;;;;;5016173;28;20240;-70
2022/01/15 12:46:15;;;;;;;30.13;19.02;;;4.90;99.90;;;;;;5020273;28;20251;-71
2022/01/15 12:48:45;;;;;;;26.38;17.50;;;4.60;99.90;;;;;;5022112;28;20559;-71
2022/01/15 12:51:14;;;;;;;26.27;18.02;;;4.70;99.90;;;;;;5024018;28;20161;-72
2022/01/15 12:53:49;;;;;;;26.98;17.88;;;4.50;99.90;;;;;;5020375;28;20205;-72
2022/01/15 12:56:18;;;;;;;28.85;19.13;;;4.40;99.90;;;;;;5019020;28;20424;-72
2022/01/15 12:58:44;;;;;;;24.92;17.50;;;4.20;99.90;;;;;;5020131;28;20187;-72
2022/01/15 13:01:11;;;;;;;25.13;17.63;;;4.10;99.90;;;;;;5023327;28;20533;-72
2022/01/15 13:03:39;;;;;;;25.60;18.83;;;4.10;99.90;;;;;;5019802;28;20280;-72